Time;durP1;ratioP1;P1;durP2;ratioP2;P2;SDS_P1;SDS_P2;PMS_P1;PMS_P2;Temp;Humidity;BMP_temperature;BMP_pressure;BME280_temperature;BME280_humidity;BME280_pressure;Samples;Min_cycle;Max_cycle;Signal;HPM_P1;HPM_P2
2022/10/17 00:01:52;;;;;;;44.03;26.13;;;12.70;99.90;;;;;;4996237;28;20042;-67
2022/10/17 00:04:18;;;;;;;33.40;22.35;;;12.80;99.90;;;;;;4995941;28;20085;-67
2022/10/17 00:06:43;;;;;;;32.40;17.08;;;12.90;99.90;;;;;;4996199;28;20074;-68
2022/10/17 00:09:09;;;;;;;21.50;14.02;;;12.80;99.90;;;;;;4996015;28;20050;-67
2022/10/17 00:11:34;;;;;;;18.23;11.43;;;12.70;99.90;;;;;;4996287;28;20516;-67
2022/10/17 00:14:01;;;;;;;21.63;9.98;;;12.80;99.90;;;;;;4995868;28;20442;-68
2022/10/17 00:16:36;;;;;;;19.20;9.57;;;12.80;99.90;;;;;;4995970;28;20575;-67
2022/10/17 00:19:05;;;;;;;20.95;10.98;;;12.60;99.90;;;;;;4995979;28;20412;-67
2022/10/17 00:21:31;;;;;;;18.63;11.60;;;12.70;99.90;;;;;;4995740;28;20042;-67
2022/10/17 00:23:58;;;;;;;18.42;12.25;;;12.80;99.90;;;;;;4995527;28;20053;-65
2022/10/17 00:26:23;;;;;;;15.85;10.23;;;12.70;99.90;;;;;;4995890;28;20034;-65
2022/10/17 00:28:51;;;;;;;14.18;7.50;;;12.60;99.90;;;;;;4995737;28;20176;-65
2022/10/17 00:31:19;;;;;;;14.95;6.57;;;12.80;99.90;;;;;;4994366;28;20050;-65
2022/10/17 00:33:45;;;;;;;15.85;7.03;;;12.80;99.90;;;;;;4995422;28;20128;-65
2022/10/17 00:36:14;;;;;;;14.98;4.88;;;12.80;99.90;;;;;;4995564;28;20542;-65
2022/10/17 00:38:41;;;;;;;12.57;4.47;;;12.70;99.90;;;;;;4995339;28;20050;-65
2022/10/17 00:41:08;;;;;;;18.10;5.10;;;12.70;99.90;;;;;;4995538;28;20128;-65
2022/10/17 00:43:52;;;;;;;13.50;5.07;;;12.80;99.90;;;;;;4995072;28;20496;-65
2022/10/17 00:46:18;;;;;;;11.93;5.78;;;12.80;99.90;;;;;;4995441;28;20042;-65
2022/10/17 00:48:45;;;;;;;13.25;6.30;;;12.80;99.90;;;;;;4995298;28;20046;-65
2022/10/17 00:51:10;;;;;;;16.85;7.55;;;12.80;99.90;;;;;;4995508;28;20042;-65
2022/10/17 00:53:38;;;;;;;13.90;6.35;;;12.80;99.90;;;;;;4995170;28;20042;-65
2022/10/17 00:56:04;;;;;;;20.92;7.28;;;12.80;99.90;;;;;;4995400;28;20070;-65
2022/10/17 00:58:29;;;;;;;13.13;6.97;;;12.80;99.90;;;;;;4995192;28;20148;-65
2022/10/17 01:00:55;;;;;;;11.68;6.78;;;13.00;99.90;;;;;;4995174;28;20034;-65
2022/10/17 01:03:20;;;;;;;16.23;6.93;;;12.90;99.90;;;;;;4994770;28;20117;-65
2022/10/17 01:05:46;;;;;;;16.15;7.72;;;13.10;99.90;;;;;;4994547;28;20038;-65
2022/10/17 01:08:12;;;;;;;14.45;7.30;;;13.00;99.90;;;;;;4994967;28;20496;-65
2022/10/17 01:10:50;;;;;;;11.02;6.35;;;13.00;99.90;;;;;;4994991;28;20038;-65
2022/10/17 01:13:56;;;;;;;10.73;6.55;;;13.00;99.90;;;;;;4994787;28;20046;-65
2022/10/17 01:16:47;;;;;;;12.88;6.78;;;13.30;99.90;;;;;;4994136;28;20054;-65
2022/10/17 01:19:34;;;;;;;15.25;6.68;;;13.30;99.90;;;;;;4994919;28;20125;-65
2022/10/17 01:22:22;;;;;;;13.77;4.80;;;13.10;99.90;;;;;;4994649;28;20113;-65
2022/10/17 01:25:10;;;;;;;14.57;5.90;;;13.10;99.90;;;;;;4994865;28;20042;-65
2022/10/17 01:27:55;;;;;;;10.82;5.32;;;13.30;99.90;;;;;;4994851;28;20042;-65
2022/10/17 01:30:52;;;;;;;10.65;6.03;;;13.30;99.90;;;;;;4994568;28;20042;-65
2022/10/17 01:33:31;;;;;;;8.05;5.53;;;13.30;99.90;;;;;;4994439;28;20046;-65
2022/10/17 01:36:19;;;;;;;9.63;5.45;;;13.30;99.90;;;;;;4994802;28;20076;-65
2022/10/17 01:38:49;;;;;;;10.98;5.07;;;13.20;99.90;;;;;;4993119;28;20137;-65
2022/10/17 01:41:32;;;;;;;11.98;5.15;;;13.40;99.90;;;;;;4994820;28;20084;-65
2022/10/17 01:44:00;;;;;;;;;;;13.40;99.90;;;;;;4994866;28;20045;-65
2022/10/17 01:46:41;;;;;;;10.93;5.78;;;13.30;99.90;;;;;;4994549;28;19961;-65
2022/10/17 01:49:09;;;;;;;11.55;5.97;;;13.20;99.90;;;;;;4993256;28;20050;-65
2022/10/17 01:51:48;;;;;;;17.35;5.75;;;13.40;99.90;;;;;;4994664;28;20068;-65
2022/10/17 01:54:29;;;;;;;13.73;5.93;;;13.20;99.90;;;;;;4994031;28;20084;-65
2022/10/17 01:57:00;;;;;;;10.93;5.63;;;13.20;99.90;;;;;;4994260;28;20034;-65
2022/10/17 01:59:44;;;;;;;9.50;6.22;;;13.30;99.90;;;;;;4994047;28;20035;-65
2022/10/17 02:02:13;;;;;;;8.35;5.63;;;13.30;99.90;;;;;;4994142;28;20097;-65
2022/10/17 02:04:40;;;;;;;9.40;5.82;;;13.50;99.90;;;;;;4993875;28;20035;-65
2022/10/17 02:07:10;;;;;;;12.15;6.20;;;13.50;99.90;;;;;;4994105;28;20407;-65
2022/10/17 02:09:36;;;;;;;9.43;6.07;;;13.50;99.90;;;;;;4993955;28;20042;-65
2022/10/17 02:12:13;;;;;;;9.38;5.85;;;13.50;99.90;;;;;;4993724;28;20046;-65
2022/10/17 02:15:00;;;;;;;13.45;6.85;;;13.30;99.90;;;;;;4993828;28;20070;-65
2022/10/17 02:18:04;;;;;;;8.88;6.72;;;13.30;99.90;;;;;;4992898;28;20049;-65
2022/10/17 02:20:48;;;;;;;11.55;7.05;;;13.20;99.90;;;;;;4992827;28;20054;-65
2022/10/17 02:23:41;;;;;;;13.57;7.32;;;13.20;99.90;;;;;;4993489;28;20038;-65
2022/10/17 02:26:25;;;;;;;10.02;6.82;;;13.10;99.90;;;;;;4993836;28;20060;-65
2022/10/17 02:28:56;;;;;;;9.52;7.35;;;13.30;99.90;;;;;;4993778;28;20038;-65
2022/10/17 02:31:27;;;;;;;11.70;7.75;;;13.30;99.90;;;;;;4993615;28;20065;-65
2022/10/17 02:34:03;;;;;;;9.70;7.32;;;13.20;99.90;;;;;;4993208;28;20042;-65
2022/10/17 02:36:35;;;;;;;14.98;7.88;;;13.10;99.90;;;;;;4993429;28;20042;-65
2022/10/17 02:39:02;;;;;;;10.57;7.60;;;13.30;99.90;;;;;;4993105;28;20042;-65
2022/10/17 02:41:30;;;;;;;13.52;7.55;;;13.10;99.90;;;;;;4993439;28;20093;-65
2022/10/17 02:43:56;;;;;;;12.80;7.40;;;13.30;99.90;;;;;;4993096;28;20034;-65
2022/10/17 02:46:23;;;;;;;14.68;7.45;;;13.30;99.90;;;;;;4993372;28;20114;-65
2022/10/17 02:48:56;;;;;;;10.73;8.23;;;13.10;99.90;;;;;;4993197;28;20046;-65
2022/10/17 02:51:46;;;;;;;10.77;8.20;;;13.10;99.90;;;;;;4993108;28;20038;-65
2022/10/17 02:54:36;;;;;;;18.48;7.93;;;13.20;99.90;;;;;;4992979;28;20412;-65
2022/10/17 02:57:27;;;;;;;11.60;7.97;;;13.20;99.90;;;;;;4993135;28;20493;-65
2022/10/17 02:59:56;;;;;;;11.20;7.88;;;13.00;99.90;;;;;;4992477;28;20424;-65
2022/10/17 03:02:21;;;;;;;9.98;8.13;;;13.10;99.90;;;;;;4992558;28;20400;-65
2022/10/17 03:04:47;;;;;;;10.48;8.32;;;12.90;99.90;;;;;;4992849;28;20050;-65
2022/10/17 03:07:13;;;;;;;11.52;7.78;;;13.20;99.90;;;;;;4992894;28;20117;-65
2022/10/17 03:09:38;;;;;;;13.38;8.85;;;13.10;99.90;;;;;;4992943;28;20045;-65
2022/10/17 03:12:04;;;;;;;17.25;9.50;;;13.10;99.90;;;;;;4991670;28;20555;-65
2022/10/17 03:14:30;;;;;;;12.63;8.77;;;13.10;99.90;;;;;;4992413;28;20515;-65
2022/10/17 03:16:55;;;;;;;11.90;8.55;;;13.00;99.90;;;;;;4992921;28;20142;-65
2022/10/17 03:19:21;;;;;;;12.95;8.60;;;13.20;99.90;;;;;;4992789;28;20047;-65
2022/10/17 03:21:46;;;;;;;12.60;9.07;;;12.90;99.90;;;;;;4992693;28;20508;-64
2022/10/17 03:24:12;;;;;;;12.50;8.75;;;13.10;99.90;;;;;;4992386;28;20038;-66
2022/10/17 03:26:37;;;;;;;13.30;8.85;;;12.90;99.90;;;;;;4992448;28;20046;-67
2022/10/17 03:29:03;;;;;;;10.48;8.52;;;12.90;99.90;;;;;;4992155;28;20042;-67
2022/10/17 03:31:28;;;;;;;11.32;8.15;;;13.10;99.90;;;;;;4992657;28;20042;-67
2022/10/17 03:33:54;;;;;;;12.32;8.50;;;13.10;99.90;;;;;;4992399;28;20038;-67
2022/10/17 03:36:20;;;;;;;13.23;8.95;;;13.00;99.90;;;;;;4992508;28;20074;-67
2022/10/17 03:38:46;;;;;;;10.40;8.68;;;13.10;99.90;;;;;;4991015;28;20046;-67
2022/10/17 03:41:12;;;;;;;11.05;8.43;;;12.90;99.90;;;;;;4991088;28;20046;-67
2022/10/17 03:43:38;;;;;;;14.23;9.20;;;12.90;99.90;;;;;;4991952;28;20089;-67
2022/10/17 03:46:05;;;;;;;14.40;9.88;;;12.90;99.90;;;;;;4992551;28;20046;-67
2022/10/17 03:48:30;;;;;;;15.40;9.77;;;12.80;99.90;;;;;;4992341;28;20563;-67
2022/10/17 03:51:00;;;;;;;13.07;10.20;;;13.10;99.90;;;;;;4992356;28;20152;-67
2022/10/17 03:53:27;;;;;;;10.75;8.85;;;13.00;99.90;;;;;;4991970;28;20519;-67
2022/10/17 03:55:52;;;;;;;14.45;10.30;;;12.90;99.90;;;;;;4992326;28;20135;-67
2022/10/17 03:58:18;;;;;;;12.60;9.73;;;13.00;99.90;;;;;;4992065;28;20475;-67
2022/10/17 04:00:43;;;;;;;14.98;10.57;;;13.00;99.90;;;;;;4992339;28;20049;-67
2022/10/17 04:03:09;;;;;;;12.25;9.73;;;13.00;99.90;;;;;;4992098;28;20557;-67
2022/10/17 04:05:34;;;;;;;9.05;8.00;;;12.80;99.90;;;;;;4992244;28;20400;-67
2022/10/17 04:08:00;;;;;;;12.35;9.35;;;13.00;99.90;;;;;;4992262;28;20041;-65
2022/10/17 04:10:25;;;;;;;13.57;10.70;;;13.00;99.90;;;;;;4992082;28;20038;-67
2022/10/17 04:12:51;;;;;;;12.73;9.65;;;13.00;99.90;;;;;;4991733;28;20042;-66
2022/10/17 04:15:17;;;;;;;13.02;9.95;;;12.80;99.90;;;;;;4992111;28;20041;-66
2022/10/17 04:17:42;;;;;;;16.25;9.95;;;13.00;99.90;;;;;;4992068;28;20039;-66
2022/10/17 04:20:08;;;;;;;10.73;9.57;;;12.70;99.90;;;;;;4992155;28;20041;-66
2022/10/17 04:22:34;;;;;;;14.80;10.77;;;12.70;99.90;;;;;;4991636;28;20412;-66
2022/10/17 04:24:59;;;;;;;16.80;10.98;;;13.00;99.90;;;;;;4992039;28;20073;-66
2022/10/17 04:27:25;;;;;;;12.57;10.10;;;12.70;99.90;;;;;;4991926;28;20034;-66
2022/10/17 04:29:50;;;;;;;12.73;10.75;;;12.80;99.90;;;;;;4992246;28;20048;-66
2022/10/17 04:32:16;;;;;;;14.02;9.60;;;12.90;99.90;;;;;;4991748;28;20052;-66
2022/10/17 04:34:42;;;;;;;15.98;10.55;;;12.70;99.90;;;;;;4991909;28;20126;-66
2022/10/17 04:37:07;;;;;;;17.10;12.35;;;12.80;99.90;;;;;;4990535;28;20049;-66
2022/10/17 04:39:33;;;;;;;13.35;11.38;;;12.90;99.90;;;;;;4991920;28;20053;-66
2022/10/17 04:41:58;;;;;;;12.50;10.68;;;12.90;99.90;;;;;;4993893;28;20038;-66
2022/10/17 04:44:24;;;;;;;15.73;12.55;;;12.70;99.90;;;;;;4995471;28;20038;-66
2022/10/17 04:46:49;;;;;;;12.77;11.27;;;12.90;99.90;;;;;;4995619;28;20034;-66
2022/10/17 04:49:15;;;;;;;19.35;13.35;;;12.90;99.90;;;;;;4995492;28;20051;-66
2022/10/17 04:51:40;;;;;;;14.07;12.30;;;12.80;99.90;;;;;;4995403;28;20049;-66
2022/10/17 04:54:06;;;;;;;19.10;14.13;;;12.80;99.90;;;;;;4995077;28;20065;-66
2022/10/17 04:56:31;;;;;;;15.55;12.80;;;13.10;99.90;;;;;;4995145;28;20035;-64
2022/10/17 04:58:58;;;;;;;18.05;12.50;;;13.10;99.90;;;;;;4995385;28;20437;-66
2022/10/17 05:01:25;;;;;;;14.07;11.77;;;13.10;99.90;;;;;;4995279;28;20042;-66
2022/10/17 05:03:51;;;;;;;17.75;13.48;;;13.10;99.90;;;;;;4994951;28;20085;-65
2022/10/17 05:06:22;;;;;;;15.07;12.98;;;13.00;99.90;;;;;;4987509;28;20062;-66
2022/10/17 05:08:48;;;;;;;16.88;12.82;;;13.10;99.90;;;;;;4978115;28;20042;-65
2022/10/17 05:11:20;;;;;;;19.70;13.25;;;13.10;99.90;;;;;;4975388;28;20035;-65
2022/10/17 05:13:51;;;;;;;18.02;12.85;;;13.20;99.90;;;;;;4975488;28;20046;-66
2022/10/17 05:16:17;;;;;;;17.25;13.38;;;13.20;99.90;;;;;;4981363;28;20117;-65
2022/10/17 05:18:42;;;;;;;16.52;13.40;;;13.10;99.90;;;;;;4984753;28;20113;-65
2022/10/17 05:21:08;;;;;;;16.98;13.38;;;13.20;99.90;;;;;;4977800;28;20039;-66
2022/10/17 05:23:33;;;;;;;15.38;13.50;;;13.30;99.90;;;;;;4974969;28;20583;-66
2022/10/17 05:25:59;;;;;;;17.48;13.95;;;13.30;99.90;;;;;;4975514;28;20041;-65
2022/10/17 05:28:25;;;;;;;18.73;14.15;;;13.10;99.90;;;;;;4975431;28;20428;-66
2022/10/17 05:30:50;;;;;;;18.35;14.15;;;13.10;99.90;;;;;;4975217;28;20085;-65
2022/10/17 05:33:16;;;;;;;20.67;15.40;;;13.20;99.90;;;;;;4974890;28;20066;-66
2022/10/17 05:35:41;;;;;;;17.80;14.45;;;13.30;99.90;;;;;;4974874;28;20049;-68
2022/10/17 05:38:07;;;;;;;18.23;14.90;;;13.30;99.90;;;;;;4974824;28;20053;-68
2022/10/17 05:40:33;;;;;;;19.40;14.60;;;13.40;99.90;;;;;;4975164;28;20081;-69
2022/10/17 05:42:59;;;;;;;18.75;15.25;;;13.20;99.90;;;;;;4974913;28;20122;-68
2022/10/17 05:45:24;;;;;;;21.00;17.25;;;13.20;99.90;;;;;;4975080;28;20121;-68
2022/10/17 05:47:50;;;;;;;22.48;16.42;;;13.50;99.90;;;;;;4974977;28;20039;-68
2022/10/17 05:50:16;;;;;;;20.23;16.00;;;13.40;99.90;;;;;;4974832;28;20042;-68
2022/10/17 05:52:42;;;;;;;22.13;15.75;;;13.40;99.90;;;;;;4974284;28;20065;-68
2022/10/17 05:55:08;;;;;;;23.92;16.83;;;13.40;99.90;;;;;;4974387;28;20544;-68
2022/10/17 05:57:33;;;;;;;22.95;16.35;;;13.30;99.90;;;;;;4974630;28;20043;-68
2022/10/17 05:59:59;;;;;;;22.38;16.42;;;13.50;99.90;;;;;;4974474;28;20046;-68
2022/10/17 06:02:25;;;;;;;23.95;17.25;;;13.30;99.90;;;;;;4974255;28;20042;-68
2022/10/17 06:04:50;;;;;;;22.90;17.30;;;13.40;99.90;;;;;;4974617;28;20501;-68
2022/10/17 06:07:16;;;;;;;21.70;16.90;;;13.30;99.90;;;;;;4974424;28;20053;-68
2022/10/17 06:09:42;;;;;;;25.05;17.98;;;13.30;99.90;;;;;;4974510;28;20047;-68
2022/10/17 06:12:07;;;;;;;24.25;17.02;;;13.50;99.90;;;;;;4974492;28;20138;-69
2022/10/17 06:14:33;;;;;;;25.48;17.98;;;13.30;99.90;;;;;;4974213;28;20110;-69
2022/10/17 06:16:59;;;;;;;26.35;17.80;;;13.50;99.90;;;;;;4974327;28;20039;-69
2022/10/17 06:19:25;;;;;;;23.40;17.95;;;13.50;99.90;;;;;;4972939;28;20420;-69
2022/10/17 06:21:50;;;;;;;21.88;17.83;;;13.30;99.90;;;;;;4974210;28;20039;-69
2022/10/17 06:24:16;;;;;;;27.52;18.58;;;13.50;99.90;;;;;;4973851;28;20544;-69
2022/10/17 06:26:42;;;;;;;23.20;17.02;;;13.50;99.90;;;;;;4974339;28;20039;-69
2022/10/17 06:29:08;;;;;;;24.27;17.58;;;13.60;99.90;;;;;;4974144;28;20129;-68
2022/10/17 06:31:34;;;;;;;20.48;16.00;;;13.40;99.90;;;;;;4974105;28;20038;-68
2022/10/17 06:33:59;;;;;;;23.30;18.08;;;13.60;99.90;;;;;;4986030;28;20492;-68
2022/10/17 06:36:25;;;;;;;24.60;16.33;;;13.60;99.90;;;;;;4993398;28;20121;-68
2022/10/17 06:38:50;;;;;;;26.67;18.17;;;13.50;99.90;;;;;;4993209;28;20136;-68
2022/10/17 06:41:18;;;;;;;20.13;16.20;;;13.50;99.90;;;;;;4993406;28;20038;-70
2022/10/17 06:43:47;;;;;;;21.40;16.30;;;13.70;99.90;;;;;;4993245;28;20042;-69
2022/10/17 06:46:15;;;;;;;27.15;18.48;;;13.50;99.90;;;;;;4992004;28;20118;-69
2022/10/17 06:48:43;;;;;;;26.73;18.52;;;13.50;99.90;;;;;;4993346;28;20046;-69
2022/10/17 06:51:10;;;;;;;21.50;17.35;;;13.60;99.90;;;;;;4992946;28;20407;-69
2022/10/17 06:53:37;;;;;;;23.55;17.85;;;13.60;99.90;;;;;;4993093;28;20536;-69
2022/10/17 06:56:03;;;;;;;22.88;17.15;;;13.70;99.90;;;;;;4993175;28;20396;-69
2022/10/17 06:58:32;;;;;;;24.25;18.10;;;13.80;99.90;;;;;;4993147;28;20050;-69
2022/10/17 07:01:03;;;;;;;26.20;17.10;;;13.80;99.90;;;;;;4992961;28;20504;-69
2022/10/17 07:03:29;;;;;;;24.05;18.17;;;13.90;99.90;;;;;;4992172;28;20555;-69
2022/10/17 07:05:55;;;;;;;27.23;17.90;;;14.00;99.90;;;;;;4992558;28;20070;-69
2022/10/17 07:08:21;;;;;;;23.42;16.80;;;13.80;99.90;;;;;;4992695;28;20572;-69
2022/10/17 07:10:47;;;;;;;26.55;18.23;;;14.00;99.90;;;;;;4992843;28;20112;-69
2022/10/17 07:13:13;;;;;;;24.15;17.50;;;14.00;99.90;;;;;;4992489;28;20049;-69
2022/10/17 07:15:38;;;;;;;21.17;17.33;;;14.20;99.90;;;;;;4992675;28;20499;-69
2022/10/17 07:18:05;;;;;;;25.45;18.10;;;14.10;99.90;;;;;;4992625;28;20038;-69
2022/10/17 07:20:31;;;;;;;23.35;17.55;;;14.20;99.90;;;;;;4992382;28;20057;-69
2022/10/17 07:22:56;;;;;;;23.65;18.10;;;14.30;99.90;;;;;;4992317;28;20038;-68
2022/10/17 07:25:22;;;;;;;23.58;17.65;;;14.50;99.90;;;;;;4992715;28;20457;-69
2022/10/17 07:27:48;;;;;;;24.30;17.40;;;14.40;99.90;;;;;;4992525;28;20038;-69
2022/10/17 07:30:14;;;;;;;28.40;17.88;;;14.50;99.90;;;;;;4992545;28;20050;-70
2022/10/17 07:32:41;;;;;;;23.98;17.73;;;14.80;99.90;;;;;;4992178;28;20117;-69
2022/10/17 07:35:08;;;;;;;23.27;17.00;;;14.80;99.90;;;;;;4991496;28;20052;-69
2022/10/17 07:37:33;;;;;;;24.10;15.95;;;14.60;99.90;;;;;;4990974;28;20072;-69
2022/10/17 07:39:59;;;;;;;24.33;17.50;;;14.70;99.90;;;;;;4992291;28;20129;-69
2022/10/17 07:42:24;;;;;;;24.05;16.80;;;14.70;99.90;;;;;;4992082;28;20045;-69
2022/10/17 07:44:50;;;;;;;20.58;15.13;;;15.00;99.90;;;;;;4992357;28;20117;-69
2022/10/17 07:47:15;;;;;;;19.48;14.00;;;14.90;99.90;;;;;;4992256;28;20492;-69
2022/10/17 07:49:42;;;;;;;20.42;15.25;;;15.20;99.90;;;;;;4992251;28;20038;-68
2022/10/17 07:52:12;;;;;;;19.20;15.57;;;15.10;99.90;;;;;;4992147;28;20093;-68
2022/10/17 07:54:38;;;;;;;22.38;14.95;;;15.40;99.90;;;;;;4992302;28;20042;-68
2022/10/17 07:57:04;;;;;;;21.08;13.23;;;15.50;99.90;;;;;;4992354;28;20046;-69
2022/10/17 07:59:29;;;;;;;20.63;15.10;;;15.60;99.90;;;;;;4992090;28;20045;-69
2022/10/17 08:01:55;;;;;;;21.85;14.25;;;15.60;99.90;;;;;;4992137;28;20034;-68
2022/10/17 08:04:21;;;;;;;19.08;13.52;;;15.70;99.90;;;;;;4992145;28;20608;-69
2022/10/17 08:06:46;;;;;;;20.70;12.88;;;16.00;99.90;;;;;;4992344;28;20076;-70
2022/10/17 08:09:12;;;;;;;18.10;12.95;;;16.10;99.90;;;;;;4992103;28;20057;-69
2022/10/17 08:11:38;;;;;;;19.20;11.55;;;16.20;99.90;;;;;;4992330;28;20054;-69
2022/10/17 08:14:03;;;;;;;19.08;11.90;;;16.00;99.90;;;;;;4990299;28;20639;-70
2022/10/17 08:16:29;;;;;;;16.55;11.63;;;16.20;99.90;;;;;;4984313;28;20043;-69
2022/10/17 08:18:54;;;;;;;15.35;11.07;;;16.50;99.90;;;;;;4976341;28;20125;-69
2022/10/17 08:21:20;;;;;;;17.33;12.07;;;16.50;99.90;;;;;;4976543;28;20097;-69
2022/10/17 08:23:45;;;;;;;16.75;11.18;;;16.70;99.90;;;;;;4976225;28;20094;-70
2022/10/17 08:26:15;;;;;;;16.00;10.75;;;16.40;99.90;;;;;;4977218;28;20034;-69
2022/10/17 08:28:41;;;;;;;17.80;10.80;;;16.50;99.90;;;;;;4995503;28;20085;-69
2022/10/17 08:31:12;;;;;;;14.80;10.40;;;16.60;99.90;;;;;;4987389;28;20456;-70
2022/10/17 08:33:38;;;;;;;15.20;10.70;;;16.60;99.90;;;;;;4989199;28;20129;-70
2022/10/17 08:36:05;;;;;;;14.20;11.05;;;17.00;99.90;;;;;;4976321;28;20034;-69
2022/10/17 08:38:32;;;;;;;12.70;10.25;;;16.70;99.90;;;;;;4976011;28;20073;-69
2022/10/17 08:41:01;;;;;;;12.80;8.77;;;17.00;99.90;;;;;;4975883;28;20045;-70
2022/10/17 08:43:44;;;;;;;14.80;10.85;;;17.10;99.90;;;;;;4974389;28;20062;-69
2022/10/17 08:46:10;;;;;;;12.52;9.23;;;16.90;99.90;;;;;;4976113;28;20039;-69
2022/10/17 08:48:41;;;;;;;13.02;9.52;;;16.80;99.90;;;;;;4976082;28;20086;-69
2022/10/17 08:51:24;;;;;;;16.35;10.00;;;17.20;99.90;;;;;;4975777;28;20039;-69
2022/10/17 08:54:03;;;;;;;13.38;9.15;;;17.10;99.90;;;;;;4984895;28;20071;-69
2022/10/17 08:56:37;;;;;;;12.30;9.13;;;17.20;99.90;;;;;;4982622;28;20053;-70
2022/10/17 08:59:09;;;;;;;11.38;8.77;;;17.30;99.90;;;;;;4975806;28;20465;-69
2022/10/17 09:01:49;;;;;;;11.70;8.43;;;16.80;99.90;;;;;;4975746;28;20043;-69
2022/10/17 09:04:33;;;;;;;13.32;9.05;;;17.10;99.90;;;;;;4975501;28;20043;-70
2022/10/17 09:07:19;;;;;;;12.23;9.27;;;17.20;99.90;;;;;;4975939;28;20043;-70
2022/10/17 09:10:03;;;;;;;13.65;9.27;;;17.20;99.90;;;;;;4975575;28;20047;-70
2022/10/17 09:12:34;;;;;;;10.27;7.97;;;17.20;99.90;;;;;;4975180;28;20121;-69
2022/10/17 09:15:39;;;;;;;12.60;8.63;;;17.10;99.90;;;;;;4975401;28;20050;-70
2022/10/17 09:18:30;;;;;;;11.85;8.85;;;17.30;99.90;;;;;;4975378;28;20054;-70
2022/10/17 09:21:04;;;;;;;12.88;8.75;;;17.10;99.90;;;;;;4997708;23;20089;-73
2022/10/17 09:23:42;;;;;;;13.40;9.10;;;16.90;99.90;;;;;;4973998;28;20125;-72
2022/10/17 09:26:10;;;;;;;13.75;9.30;;;17.00;99.90;;;;;;4957875;28;20133;-72
2022/10/17 09:28:38;;;;;;;11.20;9.00;;;17.20;99.90;;;;;;4974647;28;20101;-71
2022/10/17 09:31:18;;;;;;;14.25;9.73;;;17.10;99.90;;;;;;4957419;28;20455;-70
2022/10/17 09:33:46;;;;;;;11.98;9.23;;;17.10;99.90;;;;;;4973516;28;20089;-71
2022/10/17 09:36:21;;;;;;;12.98;9.90;;;17.20;99.90;;;;;;4975021;28;20460;-71
2022/10/17 09:38:51;;;;;;;12.23;9.65;;;16.90;99.90;;;;;;4974017;28;20118;-70
2022/10/17 09:41:23;;;;;;;12.30;9.07;;;16.90;99.90;;;;;;4973729;28;20043;-70
2022/10/17 09:43:54;;;;;;;12.85;9.60;;;17.10;99.90;;;;;;4973343;28;20429;-70
2022/10/17 09:46:35;;;;;;;12.45;9.25;;;17.10;99.90;;;;;;4975144;28;20039;-71
2022/10/17 09:49:08;;;;;;;17.85;10.63;;;17.10;99.90;;;;;;4974746;28;20045;-71
2022/10/17 09:51:35;;;;;;;13.18;10.07;;;16.90;99.90;;;;;;4973734;28;20039;-71
2022/10/17 09:54:07;;;;;;;11.50;9.15;;;16.80;99.90;;;;;;4974514;28;20058;-71
2022/10/17 09:57:00;;;;;;;14.23;9.50;;;17.10;99.90;;;;;;4974624;28;20049;-71
2022/10/17 09:59:31;;;;;;;15.20;10.27;;;16.80;99.90;;;;;;4969728;28;20046;-71
2022/10/17 10:02:12;;;;;;;15.75;10.18;;;17.00;99.90;;;;;;4974383;28;20285;-71
2022/10/17 10:04:58;;;;;;;12.43;10.43;;;16.90;99.90;;;;;;4973056;28;20513;-72
2022/10/17 10:07:27;;;;;;;14.35;10.23;;;17.10;99.90;;;;;;4974701;28;20069;-72
2022/10/17 10:09:53;;;;;;;16.00;10.60;;;17.00;99.90;;;;;;4974568;28;20043;-70
2022/10/17 10:12:28;;;;;;;16.23;11.27;;;16.80;99.90;;;;;;4973775;28;20047;-72
2022/10/17 10:14:55;;;;;;;18.30;11.77;;;17.00;99.90;;;;;;4972889;28;20101;-73
2022/10/17 10:17:31;;;;;;;16.42;12.23;;;16.90;99.90;;;;;;4974404;28;20057;-71
2022/10/17 10:19:57;;;;;;;16.92;11.98;;;16.70;99.90;;;;;;4974467;28;20046;-71
2022/10/17 10:22:23;;;;;;;18.08;12.90;;;16.60;99.90;;;;;;4973780;28;20096;-70
2022/10/17 10:25:10;;;;;;;18.42;11.98;;;16.70;99.90;;;;;;4974323;28;20043;-70
2022/10/17 10:27:38;;;;;;;15.85;11.48;;;16.50;99.90;;;;;;4972949;28;20039;-70
2022/10/17 10:30:04;;;;;;;18.20;12.50;;;16.60;99.90;;;;;;4972630;28;20451;-70
2022/10/17 10:32:33;;;;;;;20.30;13.07;;;16.70;99.90;;;;;;4972118;28;20042;-69
2022/10/17 10:35:20;;;;;;;18.90;14.13;;;16.60;99.90;;;;;;4972132;28;20525;-70
2022/10/17 10:37:55;;;;;;;16.25;12.77;;;16.80;99.90;;;;;;4973388;28;20047;-70
2022/10/17 10:40:36;;;;;;;24.17;13.43;;;16.50;99.90;;;;;;4973061;28;20093;-70
2022/10/17 10:43:03;;;;;;;17.98;13.45;;;16.60;99.90;;;;;;4973614;28;20146;-69
2022/10/17 10:45:41;;;;;;;19.25;12.77;;;16.70;99.90;;;;;;4972412;28;20455;-70
2022/10/17 10:48:23;;;;;;;19.02;14.77;;;16.60;99.90;;;;;;4972464;28;20127;-70
2022/10/17 10:51:06;;;;;;;19.20;12.30;;;16.40;99.90;;;;;;4973773;28;20043;-70
2022/10/17 10:53:49;;;;;;;16.10;13.18;;;16.60;99.90;;;;;;4973428;28;20039;-69
2022/10/17 10:56:24;;;;;;;21.27;15.05;;;16.70;99.90;;;;;;4973494;28;20082;-70
2022/10/17 10:59:28;;;;;;;19.58;12.95;;;16.70;99.90;;;;;;4973401;28;20066;-71
2022/10/17 11:02:29;;;;;;;19.52;14.00;;;16.60;99.90;;;;;;4972168;28;20062;-70
2022/10/17 11:05:03;;;;;;;20.38;14.88;;;16.60;99.90;;;;;;4969256;28;20054;-71
2022/10/17 11:07:42;;;;;;;18.25;13.38;;;16.70;99.90;;;;;;4973488;28;20382;-70
2022/10/17 11:10:12;;;;;;;21.67;13.85;;;16.40;99.90;;;;;;4973456;28;20039;-71
2022/10/17 11:12:46;;;;;;;19.95;12.95;;;16.70;99.90;;;;;;4972902;28;20039;-71
2022/10/17 11:15:26;;;;;;;20.52;13.35;;;16.50;99.90;;;;;;4973292;28;20046;-71
2022/10/17 11:18:05;;;;;;;16.20;12.73;;;16.60;99.90;;;;;;4971802;28;20071;-70
2022/10/17 11:20:50;;;;;;;17.05;13.00;;;16.80;99.90;;;;;;4971876;28;20082;-70
2022/10/17 11:23:41;;;;;;;27.02;14.35;;;16.50;99.90;;;;;;4972866;28;20069;-70
2022/10/17 11:26:14;;;;;;;20.08;13.85;;;16.70;99.90;;;;;;4971694;28;20042;-70
2022/10/17 11:28:39;;;;;;;22.42;14.25;;;16.50;99.90;;;;;;4971726;28;20058;-70
2022/10/17 11:31:11;;;;;;;19.65;14.18;;;16.80;99.90;;;;;;4971820;28;20039;-70
2022/10/17 11:33:47;;;;;;;18.85;13.38;;;16.50;99.90;;;;;;4971408;28;20038;-70
2022/10/17 11:36:15;;;;;;;20.25;14.50;;;16.70;99.90;;;;;;4972788;28;20551;-70
2022/10/17 11:39:18;;;;;;;23.35;15.57;;;16.60;99.90;;;;;;4972838;28;20038;-70
2022/10/17 11:41:52;;;;;;;19.30;14.02;;;16.50;99.90;;;;;;4963990;28;20047;-70
2022/10/17 11:44:26;;;;;;;19.55;14.20;;;16.80;99.90;;;;;;4972689;28;20109;-70
2022/10/17 11:46:54;;;;;;;;;;;16.70;99.90;;;;;;4971822;28;20035;-71
2022/10/17 11:49:39;;;;;;;21.40;14.45;;;16.70;99.90;;;;;;4972910;28;19918;-70
2022/10/17 11:52:42;;;;;;;23.55;15.57;;;16.70;99.90;;;;;;4972850;28;20043;-72
2022/10/17 11:55:22;;;;;;;23.02;15.32;;;16.50;99.90;;;;;;4972294;28;20050;-71
2022/10/17 11:57:51;;;;;;;21.58;15.95;;;16.50;99.90;;;;;;4971047;28;20517;-71
2022/10/17 12:00:44;;;;;;;24.20;15.98;;;16.60;99.90;;;;;;4972920;28;20039;-71
2022/10/17 12:03:24;;;;;;;23.52;15.32;;;16.60;99.90;;;;;;4972391;28;20053;-71
2022/10/17 12:05:58;;;;;;;21.55;15.48;;;16.60;99.90;;;;;;4971705;28;20050;-70
2022/10/17 12:08:56;;;;;;;17.88;14.00;;;16.70;99.90;;;;;;4971777;28;20452;-70
2022/10/17 12:11:54;;;;;;;22.83;15.00;;;16.80;99.90;;;;;;4972605;28;20382;-71
2022/10/17 12:14:32;;;;;;;20.85;14.48;;;16.80;99.90;;;;;;4971322;28;20128;-71
2022/10/17 12:16:58;;;;;;;21.13;14.43;;;16.70;99.90;;;;;;4971332;28;20050;-71
2022/10/17 12:19:29;;;;;;;19.90;14.90;;;16.80;99.90;;;;;;4972596;28;20043;-70
2022/10/17 12:22:02;;;;;;;20.98;14.65;;;17.00;99.90;;;;;;4972431;28;20043;-71
2022/10/17 12:25:00;;;;;;;19.67;14.02;;;17.00;99.90;;;;;;4972235;28;20046;-71
2022/10/17 12:27:40;;;;;;;18.52;12.90;;;16.80;99.90;;;;;;4960566;28;20058;-71
2022/10/17 12:30:16;;;;;;;18.90;13.45;;;17.10;99.90;;;;;;4971349;28;20043;-71
2022/10/17 12:33:02;;;;;;;17.00;11.48;;;17.10;99.90;;;;;;4972108;28;20077;-70
2022/10/17 12:35:29;;;;;;;16.70;11.65;;;16.90;99.90;;;;;;4971480;28;20035;-70
2022/10/17 12:37:59;;;;;;;13.13;10.18;;;16.80;99.90;;;;;;4972478;28;20051;-70
2022/10/17 12:40:34;;;;;;;11.80;9.70;;;17.00;99.90;;;;;;4972486;28;20118;-70
2022/10/17 12:43:01;;;;;;;16.30;10.07;;;16.70;99.90;;;;;;4970714;28;20034;-70
2022/10/17 12:45:48;;;;;;;14.02;10.35;;;16.80;99.90;;;;;;4972528;28;20058;-70
2022/10/17 12:48:35;;;;;;;14.45;11.02;;;16.90;99.90;;;;;;4971064;28;20043;-70
2022/10/17 12:51:18;;;;;;;16.35;11.07;;;16.80;99.90;;;;;;4972318;28;20046;-71
2022/10/17 12:53:59;;;;;;;14.27;10.52;;;16.70;99.90;;;;;;4972142;28;20114;-70